Time;durP1;ratioP1;P1;durP2;ratioP2;P2;SDS_P1;SDS_P2;PMS_P1;PMS_P2;Temp;Humidity;BMP_temperature;BMP_pressure;BME280_temperature;BME280_humidity;BME280_pressure;Samples;Min_cycle;Max_cycle;Signal;HPM_P1;HPM_P2
2022/08/05 00:00:59;;;;;;;1.85;1.70;;;24.10;52.00;24.20;100239.00;;;;5015880;27;101788;-64
2022/08/05 00:03:25;;;;;;;3.63;1.70;;;24.00;52.00;24.20;100231.00;;;;5016057;27;88660;-63
2022/08/05 00:05:50;;;;;;;2.03;1.85;;;24.00;52.00;24.20;100234.00;;;;5014900;27;110600;-64
2022/08/05 00:08:16;;;;;;;2.13;1.77;;;24.00;52.20;24.20;100231.00;;;;4995756;27;108299;-63
2022/08/05 00:10:42;;;;;;;2.67;1.75;;;24.00;52.40;24.10;100232.00;;;;4993910;28;118338;-64
2022/08/05 00:13:07;;;;;;;8.43;2.22;;;23.90;52.60;24.00;100234.00;;;;4994733;27;117326;-63
2022/08/05 00:15:33;;;;;;;2.97;1.63;;;23.90;52.70;24.00;100231.00;;;;5014462;27;110078;-64
2022/08/05 00:17:59;;;;;;;2.13;1.60;;;23.80;52.80;23.90;100222.00;;;;5000487;27;110910;-63
2022/08/05 00:20:25;;;;;;;2.10;1.38;;;23.70;53.00;23.90;100226.00;;;;4995165;28;117723;-63
2022/08/05 00:22:51;;;;;;;1.63;1.52;;;23.70;53.20;23.80;100219.00;;;;4994860;28;117323;-63
2022/08/05 00:25:16;;;;;;;1.65;1.55;;;23.60;53.30;23.80;100219.00;;;;4995068;28;110146;-64
2022/08/05 00:27:42;;;;;;;2.92;1.70;;;23.60;53.50;23.70;100222.00;;;;5003888;27;108719;-63
2022/08/05 00:30:09;;;;;;;2.08;1.92;;;23.50;53.70;23.70;100221.00;;;;5014941;27;115860;-63
2022/08/05 00:32:34;;;;;;;2.92;1.75;;;23.50;53.90;23.60;100219.00;;;;5016518;27;88132;-63
2022/08/05 00:35:00;;;;;;;2.55;1.55;;;23.40;54.00;23.60;100226.00;;;;5013993;27;110072;-63
2022/08/05 00:37:26;;;;;;;1.95;1.58;;;23.40;54.10;23.50;100217.00;;;;5013266;27;107072;-63
2022/08/05 00:39:51;;;;;;;2.38;2.00;;;23.40;54.10;23.50;100225.00;;;;5014288;27;116813;-63
2022/08/05 00:42:36;;;;;;;2.00;1.77;;;23.30;54.10;23.40;100224.00;;;;5013915;27;116883;-63
2022/08/05 00:45:05;;;;;;;1.40;1.30;;;23.30;54.30;23.40;100222.00;;;;5015484;27;87789;-63
2022/08/05 00:47:31;;;;;;;5.20;1.60;;;23.20;54.30;23.40;100217.00;;;;5012267;27;87766;-63
2022/08/05 00:49:57;;;;;;;2.17;1.98;;;23.20;54.50;23.40;100223.00;;;;5015936;27;88004;-63
2022/08/05 00:52:23;;;;;;;2.35;2.15;;;23.20;54.60;23.40;100218.00;;;;5015023;27;116751;-63
2022/08/05 00:54:48;;;;;;;3.45;2.17;;;23.20;54.70;23.30;100215.00;;;;5015769;27;87879;-63
2022/08/05 00:57:14;;;;;;;2.35;2.03;;;23.20;54.90;23.30;100215.00;;;;5014318;27;108417;-63
2022/08/05 00:59:40;;;;;;;2.05;1.77;;;23.10;55.00;23.20;100218.00;;;;5013699;27;89763;-63
2022/08/05 01:02:06;;;;;;;1.67;1.55;;;23.00;55.00;23.20;100217.00;;;;5015101;27;118771;-63
2022/08/05 01:04:31;;;;;;;2.70;1.90;;;23.00;55.20;23.20;100216.00;;;;5018603;27;92680;-63
2022/08/05 01:06:57;;;;;;;2.20;1.63;;;23.00;55.30;23.10;100214.00;;;;5017885;27;109798;-63
2022/08/05 01:09:23;;;;;;;2.40;2.05;;;23.00;55.40;23.10;100207.00;;;;5005339;27;117844;-63
2022/08/05 01:11:52;;;;;;;2.20;2.00;;;22.90;56.20;23.10;100212.00;;;;5017081;27;116808;-63
2022/08/05 01:14:57;;;;;;;4.05;2.35;;;22.90;55.80;23.00;100204.00;;;;5016529;27;87673;-63
2022/08/05 01:17:31;;;;;;;2.20;2.00;;;22.90;56.00;23.00;100203.00;;;;5004485;27;87224;-63
2022/08/05 01:20:28;;;;;;;3.97;2.53;;;22.80;56.10;23.00;100191.00;;;;5012705;27;87860;-63
2022/08/05 01:23:51;;;;;;;8.45;2.88;;;22.80;56.30;22.90;100203.00;;;;5012903;27;88231;-64
2022/08/05 01:27:12;;;;;;;1.92;1.77;;;22.80;56.30;22.90;100194.00;;;;4997871;28;88792;-63
2022/08/05 01:29:44;;;;;;;2.17;1.98;;;22.80;56.50;22.90;100197.00;;;;4998321;27;87821;-63
2022/08/05 01:32:15;;;;;;;2.45;2.08;;;22.70;56.60;22.90;100195.00;;;;5016310;27;88115;-63
2022/08/05 01:34:57;;;;;;;2.10;1.90;;;22.70;56.70;22.80;100191.00;;;;4998939;27;90094;-63
2022/08/05 01:37:42;;;;;;;3.03;2.20;;;22.60;56.90;22.80;100195.00;;;;5015637;27;87823;-63
2022/08/05 01:40:11;;;;;;;1.85;1.55;;;22.60;57.00;22.80;100198.00;;;;5013240;27;87701;-63
2022/08/05 01:42:39;;;;;;;3.80;2.38;;;22.60;57.10;22.80;100180.00;;;;4997957;28;89071;-63
2022/08/05 01:45:06;;;;;;;5.45;2.08;;;22.60;57.20;22.80;100182.00;;;;4998437;28;88017;-63
2022/08/05 01:47:34;;;;;;;2.47;2.28;;;22.60;57.20;22.70;100177.00;;;;5012516;27;87741;-63
2022/08/05 01:50:04;;;;;;;2.55;2.10;;;22.60;57.30;22.80;100178.00;;;;5000626;27;87807;-63
2022/08/05 01:52:33;;;;;;;3.15;2.30;;;22.60;57.30;22.70;100173.00;;;;4999492;27;91830;-63
2022/08/05 01:55:05;;;;;;;2.08;1.88;;;22.50;57.40;22.70;100183.00;;;;5018083;27;89012;-63
2022/08/05 01:57:37;;;;;;;4.47;2.22;;;22.60;57.60;22.70;100175.00;;;;5017680;27;87961;-64
2022/08/05 02:00:06;;;;;;;1.75;1.65;;;22.50;57.70;22.70;100170.00;;;;5014662;27;87941;-62
2022/08/05 02:02:36;;;;;;;2.05;1.73;;;22.50;57.90;22.70;100167.00;;;;5024550;27;104771;-63
2022/08/05 02:05:06;;;;;;;1.80;1.70;;;22.50;58.10;22.60;100171.00;;;;5012209;27;93912;-63
2022/08/05 02:07:33;;;;;;;2.70;1.85;;;22.50;58.40;22.60;100168.00;;;;5012176;27;87651;-63
2022/08/05 02:10:01;;;;;;;1.83;1.33;;;22.40;58.50;22.60;100164.00;;;;5012303;27;107188;-63
2022/08/05 02:12:46;;;;;;;3.20;2.35;;;22.40;58.60;22.50;100173.00;;;;5016191;27;88706;-63
2022/08/05 02:15:23;;;;;;;2.42;2.22;;;22.30;58.90;22.50;100170.00;;;;5016163;27;100953;-63
2022/08/05 02:18:14;;;;;;;6.15;1.88;;;22.30;58.90;22.50;100159.00;;;;5016815;27;88719;-63
2022/08/05 02:20:56;;;;;;;2.42;1.83;;;22.30;59.00;22.40;100156.00;;;;5014764;27;88626;-63
2022/08/05 02:23:29;;;;;;;1.70;1.55;;;22.30;59.10;22.40;100163.00;;;;5004521;27;88288;-63
2022/08/05 02:25:57;;;;;;;1.80;1.70;;;22.20;59.10;22.40;100155.00;;;;5012528;27;88491;-63
2022/08/05 02:28:27;;;;;;;2.05;1.85;;;22.20;59.20;22.40;100156.00;;;;5011176;27;108494;-63
2022/08/05 02:31:00;;;;;;;2.08;1.83;;;22.10;59.20;22.30;100157.00;;;;4997067;27;87653;-63
2022/08/05 02:33:26;;;;;;;2.50;1.88;;;22.10;59.30;22.30;100148.00;;;;4997131;27;93187;-63
2022/08/05 02:35:55;;;;;;;3.30;2.78;;;22.10;59.40;22.30;100147.00;;;;5016812;27;87162;-62
2022/08/05 02:38:22;;;;;;;2.28;1.67;;;22.10;59.60;22.30;100150.00;;;;5014741;27;109870;-63
2022/08/05 02:40:48;;;;;;;2.08;1.88;;;21.80;59.70;22.20;100151.00;;;;5006867;27;99326;-63
2022/08/05 02:43:15;;;;;;;2.20;2.10;;;22.10;60.00;22.20;100150.00;;;;5003482;27;117902;-63
2022/08/05 02:45:42;;;;;;;2.10;1.90;;;22.00;60.00;22.20;100157.00;;;;5017051;27;93203;-63
2022/08/05 02:48:09;;;;;;;1.67;1.58;;;22.00;60.20;22.10;100165.00;;;;5004790;27;109964;-63
2022/08/05 02:50:37;;;;;;;2.42;1.52;;;22.00;60.60;22.00;100161.00;;;;5011991;27;88619;-63
2022/08/05 02:53:03;;;;;;;1.90;1.77;;;21.90;60.90;22.00;100159.00;;;;4997296;27;88122;-63
2022/08/05 02:55:30;;;;;;;2.20;2.00;;;21.80;61.20;21.90;100159.00;;;;5011122;27;87747;-63
2022/08/05 02:57:58;;;;;;;2.63;2.40;;;21.80;61.50;21.90;100155.00;;;;5011006;27;110406;-63
2022/08/05 03:00:24;;;;;;;2.88;2.65;;;21.70;61.60;21.80;100161.00;;;;4996379;28;108896;-63
2022/08/05 03:02:51;;;;;;;2.30;1.90;;;21.70;61.90;21.80;100163.00;;;;5011555;27;90622;-63
2022/08/05 03:05:18;;;;;;;2.30;1.67;;;21.60;62.10;21.80;100167.00;;;;5010499;27;118190;-63
2022/08/05 03:07:45;;;;;;;2.22;1.58;;;21.60;62.20;21.70;100160.00;;;;5010860;27;88798;-63
2022/08/05 03:10:14;;;;;;;2.65;1.90;;;21.50;62.70;21.70;100155.00;;;;4995434;28;108997;-63
2022/08/05 03:12:39;;;;;;;3.00;1.92;;;21.50;62.80;21.70;100151.00;;;;4998483;27;107660;-63
2022/08/05 03:15:09;;;;;;;2.05;1.85;;;21.50;63.30;21.60;100159.00;;;;5016288;27;87737;-63
2022/08/05 03:17:36;;;;;;;2.50;2.15;;;21.40;63.40;21.60;100148.00;;;;5016797;27;87767;-63
2022/08/05 03:20:04;;;;;;;2.53;2.33;;;21.40;64.00;21.60;100163.00;;;;5014700;27;87963;-63
2022/08/05 03:22:30;;;;;;;2.20;2.00;;;21.40;64.20;21.50;100146.00;;;;5014874;27;89111;-63
2022/08/05 03:24:56;;;;;;;2.20;2.00;;;21.30;64.90;21.50;100153.00;;;;4995152;27;117179;-63
2022/08/05 03:27:23;;;;;;;3.33;2.58;;;21.30;65.00;21.40;100162.00;;;;4995014;28;110475;-63
2022/08/05 03:29:48;;;;;;;2.58;2.35;;;21.20;65.20;21.40;100163.00;;;;5011333;27;88150;-63
2022/08/05 03:32:15;;;;;;;1.88;1.55;;;21.20;65.40;21.40;100168.00;;;;4994122;28;118140;-64
2022/08/05 03:34:45;;;;;;;3.17;2.53;;;21.10;65.50;21.40;100159.00;;;;5011418;27;88615;-63
2022/08/05 03:37:11;;;;;;;3.00;2.22;;;21.20;65.80;21.40;100164.00;;;;5011422;27;88013;-63
2022/08/05 03:39:37;;;;;;;2.17;1.88;;;21.20;66.10;21.30;100168.00;;;;4995489;28;105232;-64
2022/08/05 03:42:03;;;;;;;2.38;1.95;;;21.20;66.30;21.30;100170.00;;;;4994474;28;117841;-63
2022/08/05 03:44:29;;;;;;;3.40;2.28;;;21.10;66.40;21.30;100168.00;;;;5012060;27;108713;-63
2022/08/05 03:46:54;;;;;;;3.65;2.65;;;21.10;66.50;21.30;100167.00;;;;5015034;27;112048;-63
2022/08/05 03:49:20;;;;;;;2.95;2.13;;;21.10;66.90;21.30;100179.00;;;;4996013;27;108865;-63
2022/08/05 03:51:57;;;;;;;2.25;2.05;;;21.10;67.00;21.30;100170.00;;;;5012641;27;117559;-63
2022/08/05 03:54:54;;;;;;;5.00;1.88;;;21.10;67.20;21.30;100163.00;;;;5012755;27;106846;-63
2022/08/05 03:57:28;;;;;;;3.67;1.85;;;21.10;67.50;21.30;100174.00;;;;5013097;27;88786;-63
2022/08/05 03:59:59;;;;;;;3.33;2.22;;;21.10;67.80;21.30;100172.00;;;;5001702;27;88060;-63
2022/08/05 04:02:30;;;;;;;3.50;2.42;;;21.20;68.00;21.40;100169.00;;;;5031565;27;88263;-63
2022/08/05 04:04:58;;;;;;;3.10;2.50;;;21.20;68.50;21.40;100174.00;;;;5012727;27;88247;-63
2022/08/05 04:07:25;;;;;;;3.45;2.28;;;21.20;68.50;21.40;100172.00;;;;5009067;27;110681;-63
2022/08/05 04:09:53;;;;;;;2.10;1.95;;;21.20;68.70;21.40;100163.00;;;;4995734;27;87966;-63
2022/08/05 04:12:19;;;;;;;2.97;2.38;;;21.20;68.80;21.40;100164.00;;;;5009251;27;109443;-63
2022/08/05 04:14:45;;;;;;;3.65;2.40;;;21.20;68.70;21.50;100167.00;;;;4996326;27;106866;-63
2022/08/05 04:17:11;;;;;;;3.97;1.70;;;21.20;68.90;21.50;100167.00;;;;4995049;28;109376;-63
2022/08/05 04:19:43;;;;;;;3.25;2.42;;;21.30;68.90;21.50;100164.00;;;;5010122;27;87823;-63
2022/08/05 04:22:09;;;;;;;4.97;2.67;;;21.30;69.00;21.60;100171.00;;;;4994205;27;89761;-63
2022/08/05 04:24:37;;;;;;;2.78;2.20;;;21.30;69.10;21.60;100165.00;;;;4996443;27;88246;-63
2022/08/05 04:27:03;;;;;;;3.00;2.45;;;21.40;69.20;21.60;100169.00;;;;5010222;27;87974;-64
2022/08/05 04:29:29;;;;;;;2.33;1.92;;;21.40;69.10;21.70;100159.00;;;;4993896;28;94171;-64
2022/08/05 04:31:54;;;;;;;2.88;2.17;;;21.50;69.00;21.80;100163.00;;;;4994330;28;116465;-63
2022/08/05 04:34:20;;;;;;;2.85;2.55;;;21.50;68.90;21.90;100170.00;;;;4995151;27;117549;-64
2022/08/05 04:36:45;;;;;;;2.40;2.13;;;21.60;68.70;21.90;100172.00;;;;4995282;27;110030;-63
2022/08/05 04:39:11;;;;;;;2.05;1.85;;;21.70;68.70;22.10;100167.00;;;;4998588;28;108277;-63
2022/08/05 04:41:37;;;;;;;3.22;2.10;;;21.80;68.50;22.20;100170.00;;;;4997045;27;119571;-63
2022/08/05 04:44:03;;;;;;;3.08;2.30;;;21.90;68.50;22.30;100169.00;;;;5008978;27;117338;-63
2022/08/05 04:46:28;;;;;;;3.85;2.20;;;22.00;68.10;22.40;100176.00;;;;5019672;27;88854;-63
2022/08/05 04:48:54;;;;;;;2.30;1.98;;;22.10;67.80;22.50;100174.00;;;;5002271;27;108326;-64
2022/08/05 04:51:20;;;;;;;2.22;2.08;;;22.20;67.70;22.60;100178.00;;;;4999084;28;117838;-64
2022/08/05 04:53:45;;;;;;;3.53;2.70;;;22.30;67.40;22.70;100178.00;;;;5008886;27;118649;-64
2022/08/05 04:56:11;;;;;;;3.33;2.47;;;22.40;66.90;22.90;100176.00;;;;5017453;27;110635;-64
2022/08/05 04:58:37;;;;;;;5.20;2.35;;;22.60;66.60;23.10;100177.00;;;;5018375;27;87762;-64
2022/08/05 05:01:02;;;;;;;5.15;2.67;;;22.70;66.10;23.30;100178.00;;;;5018185;27;118044;-64
2022/08/05 05:03:28;;;;;;;2.30;2.10;;;23.00;65.70;23.50;100182.00;;;;5015886;27;113897;-64
2022/08/05 05:05:53;;;;;;;1.98;1.73;;;23.10;65.20;23.70;100187.00;;;;5018239;27;110335;-64
2022/08/05 05:08:19;;;;;;;1.80;1.70;;;23.30;64.50;23.90;100185.00;;;;5018707;27;87695;-64
2022/08/05 05:10:46;;;;;;;3.33;2.30;;;23.50;63.80;24.00;100186.00;;;;5007839;27;118699;-64
2022/08/05 05:13:15;;;;;;;4.90;2.03;;;23.70;63.40;24.20;100180.00;;;;5001674;27;89667;-64
2022/08/05 05:15:43;;;;;;;2.03;1.63;;;23.90;62.90;24.30;100187.00;;;;5016016;27;87770;-64
2022/08/05 05:18:08;;;;;;;2.17;1.88;;;24.00;62.30;24.50;100180.00;;;;5010601;27;99135;-64
2022/08/05 05:20:34;;;;;;;3.63;2.03;;;24.20;61.70;24.60;100185.00;;;;4991948;27;118240;-64
2022/08/05 05:23:05;;;;;;;3.17;2.05;;;24.30;61.10;24.80;100187.00;;;;4995897;27;103443;-64
2022/08/05 05:25:31;;;;;;;2.50;2.08;;;24.40;60.70;24.90;100189.00;;;;4994460;27;87713;-64
2022/08/05 05:27:57;;;;;;;2.00;1.80;;;24.60;60.20;25.10;100192.00;;;;4994597;27;109180;-64
2022/08/05 05:30:23;;;;;;;2.47;1.88;;;24.80;59.70;25.30;100195.00;;;;4992701;27;118175;-64
2022/08/05 05:32:49;;;;;;;2.47;2.20;;;25.00;59.30;25.50;100201.00;;;;4995053;27;88095;-64
2022/08/05 05:35:18;;;;;;;5.75;2.53;;;25.10;58.70;25.60;100194.00;;;;4993260;27;110503;-63
2022/08/05 05:37:51;;;;;;;2.53;2.33;;;25.30;58.30;25.80;100192.00;;;;4993861;27;87607;-64
2022/08/05 05:40:19;;;;;;;1.77;1.67;;;25.50;58.10;26.00;100195.00;;;;4994186;27;88992;-64
2022/08/05 05:42:48;;;;;;;3.63;2.08;;;25.70;57.70;26.20;100186.00;;;;4993962;27;89514;-64
2022/08/05 05:45:15;;;;;;;2.22;1.52;;;25.80;57.30;26.50;100194.00;;;;4993729;27;87893;-64
2022/08/05 05:47:42;;;;;;;5.38;2.15;;;26.10;57.00;26.70;100208.00;;;;5007979;27;87888;-64
2022/08/05 05:50:10;;;;;;;5.43;1.63;;;26.30;56.50;27.00;100197.00;;;;4992441;27;88489;-64
2022/08/05 05:52:36;;;;;;;1.88;1.30;;;26.60;55.90;27.20;100201.00;;;;4995870;27;89303;-64
2022/08/05 05:55:05;;;;;;;3.72;2.40;;;26.80;55.50;27.40;100192.00;;;;5010637;27;87588;-64
2022/08/05 05:57:31;;;;;;;2.15;1.42;;;27.00;54.80;27.70;100198.00;;;;4994999;27;87994;-64
2022/08/05 05:59:56;;;;;;;3.80;1.75;;;27.30;54.30;27.80;100195.00;;;;4992374;27;117515;-64
2022/08/05 06:02:22;;;;;;;1.42;1.30;;;27.50;53.60;28.00;100198.00;;;;4993331;27;104295;-64
2022/08/05 06:04:48;;;;;;;3.38;1.60;;;27.60;52.90;28.20;100198.00;;;;4993395;27;110592;-64
2022/08/05 06:07:15;;;;;;;2.67;2.10;;;27.80;52.30;28.40;100202.00;;;;4993072;27;106903;-64
2022/08/05 06:09:40;;;;;;;3.38;1.30;;;28.10;51.90;28.60;100213.00;;;;4993763;27;89869;-64
2022/08/05 06:12:07;;;;;;;2.97;1.63;;;28.30;51.00;28.80;100219.00;;;;4992303;27;116649;-64
2022/08/05 06:14:32;;;;;;;2.13;1.50;;;28.40;50.50;29.00;100222.00;;;;4994523;27;97454;-63
2022/08/05 06:16:59;;;;;;;1.50;1.10;;;28.60;49.70;29.10;100227.00;;;;4993566;27;106444;-64
2022/08/05 06:19:26;;;;;;;1.40;1.30;;;28.80;49.00;29.30;100233.00;;;;4993644;27;88598;-65
2022/08/05 06:21:52;;;;;;;1.75;1.50;;;28.90;48.30;29.40;100240.00;;;;4992942;27;118163;-64
2022/08/05 06:24:18;;;;;;;2.30;1.45;;;29.00;48.20;29.50;100239.00;;;;4992451;27;100975;-64
2022/08/05 06:26:44;;;;;;;0.70;0.70;;;29.20;47.60;29.50;100235.00;;;;4994751;27;87949;-63
2022/08/05 06:29:10;;;;;;;7.47;1.75;;;29.20;47.10;29.50;100235.00;;;;4993082;27;91504;-63
2022/08/05 06:31:36;;;;;;;1.88;1.40;;;29.20;46.70;29.50;100240.00;;;;4992690;27;93700;-64
2022/08/05 06:34:02;;;;;;;2.28;1.33;;;29.30;46.50;29.60;100248.00;;;;4993057;27;90747;-63
2022/08/05 06:36:28;;;;;;;2.28;1.50;;;29.30;45.90;29.60;100252.00;;;;5000518;27;94285;-63
2022/08/05 06:38:54;;;;;;;1.67;1.38;;;29.40;45.80;29.70;100250.00;;;;4992545;27;118748;-64
2022/08/05 06:41:20;;;;;;;2.28;1.33;;;29.40;45.70;29.90;100257.00;;;;4993503;27;108556;-63
2022/08/05 06:43:47;;;;;;;1.60;1.42;;;29.50;45.50;29.90;100266.00;;;;4992071;27;87756;-65
2022/08/05 06:46:13;;;;;;;1.40;1.30;;;29.60;44.90;30.00;100270.00;;;;4992874;27;100345;-64
2022/08/05 06:48:39;;;;;;;2.35;1.80;;;29.70;44.60;30.00;100288.00;;;;4991779;27;90122;-64
2022/08/05 06:51:05;;;;;;;1.90;1.33;;;29.70;44.40;30.00;100282.00;;;;4994087;27;88622;-64
2022/08/05 06:53:30;;;;;;;7.07;1.83;;;29.70;45.10;30.00;100299.00;;;;4999756;27;99066;-64
2022/08/05 06:55:58;;;;;;;1.10;1.00;;;29.70;45.70;30.00;100295.00;;;;4993676;27;110164;-64
2022/08/05 06:58:26;;;;;;;3.00;2.00;;;29.70;46.40;30.00;100306.00;;;;4992618;27;88984;-64
2022/08/05 07:00:52;;;;;;;2.30;1.52;;;29.70;47.30;29.80;100304.00;;;;4992941;27;105230;-64
2022/08/05 07:03:17;;;;;;;2.05;1.63;;;29.60;47.90;29.80;100298.00;;;;4992638;27;87778;-64
2022/08/05 07:05:44;;;;;;;1.85;1.75;;;29.60;48.30;29.90;100307.00;;;;4993531;27;108700;-63
2022/08/05 07:08:10;;;;;;;1.83;1.73;;;29.60;48.50;30.00;100308.00;;;;4992093;27;118420;-64
2022/08/05 07:10:36;;;;;;;1.60;1.50;;;29.70;48.80;30.20;100303.00;;;;4991567;27;118410;-63
2022/08/05 07:18:30;;;;;;;3.63;2.38;;;30.00;48.90;30.20;100324.00;;;;4991300;27;89014;-64
2022/08/05 07:20:56;;;;;;;2.10;1.85;;;30.00;49.00;30.20;100312.00;;;;4992876;27;89010;-65
2022/08/05 07:23:21;;;;;;;3.67;2.03;;;29.90;49.10;30.20;100320.00;;;;4991696;27;109796;-64
2022/08/05 07:25:47;;;;;;;3.67;2.13;;;29.90;49.30;30.20;100322.00;;;;4992989;27;108177;-64
2022/08/05 07:28:13;;;;;;;2.83;2.08;;;30.00;49.40;30.20;100319.00;;;;4991024;27;117727;-64
2022/08/05 07:30:38;;;;;;;1.95;1.75;;;30.00;49.50;30.30;100319.00;;;;4991419;27;117608;-64
2022/08/05 07:33:09;;;;;;;2.67;2.25;;;30.00;49.60;30.30;100320.00;;;;4989822;27;87936;-64
2022/08/05 07:35:35;;;;;;;3.35;1.88;;;30.10;49.90;30.40;100315.00;;;;4998248;27;87779;-63
2022/08/05 07:38:00;;;;;;;2.55;1.98;;;30.10;49.90;30.50;100324.00;;;;5005558;27;112644;-63
2022/08/05 07:40:26;;;;;;;2.00;1.60;;;30.20;49.90;30.60;100332.00;;;;4991251;27;117617;-62
2022/08/05 07:42:52;;;;;;;3.47;2.05;;;30.30;50.00;30.70;100335.00;;;;4991378;27;94939;-63
2022/08/05 07:45:19;;;;;;;3.83;2.65;;;30.40;50.00;30.90;100333.00;;;;4997541;27;108748;-64
2022/08/05 07:47:45;;;;;;;2.53;2.22;;;30.50;50.10;31.00;100342.00;;;;5005271;27;88817;-64
2022/08/05 07:50:11;;;;;;;2.50;2.30;;;30.70;50.20;31.30;100342.00;;;;4991609;27;109709;-64
2022/08/05 07:52:42;;;;;;;2.50;2.30;;;30.90;50.10;31.40;100339.00;;;;4994948;27;87737;-63
2022/08/05 07:55:09;;;;;;;2.50;2.30;;;31.10;50.00;31.50;100339.00;;;;4997519;27;87370;-63
2022/08/05 07:57:35;;;;;;;2.42;2.15;;;31.20;49.90;31.50;100343.00;;;;4994540;27;88674;-64
2022/08/05 08:00:04;;;;;;;2.33;2.13;;;31.20;50.00;31.30;100345.00;;;;4992306;27;88939;-63
2022/08/05 08:02:29;;;;;;;2.60;2.35;;;31.20;50.10;31.20;100334.00;;;;4991740;27;88531;-64
2022/08/05 08:04:55;;;;;;;3.75;2.78;;;31.00;50.50;31.20;100338.00;;;;4992657;27;90749;-64
2022/08/05 08:07:21;;;;;;;3.65;2.70;;;30.90;50.70;31.10;100354.00;;;;4994039;27;97141;-64
2022/08/05 08:09:48;;;;;;;2.00;1.85;;;30.90;50.90;31.20;100352.00;;;;4992540;27;99749;-63
2022/08/05 08:12:14;;;;;;;1.77;1.60;;;30.90;51.00;31.30;100362.00;;;;4994122;27;87991;-64
2022/08/05 08:14:41;;;;;;;2.72;2.53;;;31.00;51.10;31.50;100363.00;;;;4996326;27;88160;-64
2022/08/05 08:17:09;;;;;;;2.13;1.92;;;31.10;51.60;31.50;100373.00;;;;4995641;27;88203;-64
2022/08/05 08:19:37;;;;;;;3.33;2.38;;;31.20;50.90;31.50;100374.00;;;;4996432;27;88832;-63
2022/08/05 08:22:03;;;;;;;3.08;2.25;;;31.20;50.90;31.70;100376.00;;;;4995792;27;87691;-64
2022/08/05 08:24:30;;;;;;;2.90;2.33;;;31.30;51.00;31.80;100386.00;;;;4995457;27;87823;-65
2022/08/05 08:26:55;;;;;;;3.33;2.75;;;31.50;50.80;31.90;100384.00;;;;4992554;27;103202;-64
2022/08/05 08:29:21;;;;;;;2.92;2.05;;;31.60;50.50;32.10;100385.00;;;;4993586;27;118523;-64
2022/08/05 08:31:48;;;;;;;2.55;2.35;;;31.80;50.50;32.30;100390.00;;;;4995615;27;93684;-63
2022/08/05 08:34:15;;;;;;;2.35;1.80;;;31.90;50.40;32.60;100400.00;;;;4995120;27;95792;-64
2022/08/05 08:36:41;;;;;;;2.08;1.88;;;32.20;50.20;32.90;100392.00;;;;4995863;27;87984;-64
2022/08/05 08:39:07;;;;;;;3.35;2.20;;;32.50;49.50;33.00;100394.00;;;;4994243;27;117102;-64
2022/08/05 08:41:36;;;;;;;2.65;2.17;;;32.60;49.20;33.10;100382.00;;;;4994905;27;96835;-63
2022/08/05 08:44:02;;;;;;;3.08;2.22;;;32.70;49.00;33.20;100382.00;;;;4993522;27;98058;-64
2022/08/05 08:46:31;;;;;;;2.55;2.25;;;32.80;48.40;33.20;100394.00;;;;4993970;27;88781;-64
2022/08/05 08:48:57;;;;;;;2.30;1.98;;;32.90;48.20;33.10;100401.00;;;;4993835;27;112048;-63
2022/08/05 08:51:26;;;;;;;2.78;1.98;;;32.80;48.20;33.00;100410.00;;;;5000349;27;89168;-64
2022/08/05 08:53:53;;;;;;;2.35;1.95;;;32.80;48.20;33.00;100399.00;;;;4993781;27;88069;-64
2022/08/05 08:56:20;;;;;;;6.03;1.88;;;32.70;48.10;32.90;100408.00;;;;4994058;27;116776;-64
2022/08/05 08:58:46;;;;;;;1.92;1.80;;;32.70;48.20;33.00;100414.00;;;;4995019;27;88581;-65
2022/08/05 09:01:12;;;;;;;4.32;2.50;;;32.70;48.30;33.20;100410.00;;;;4994822;27;110784;-64
2022/08/05 09:03:39;;;;;;;2.33;1.85;;;32.80;48.20;33.40;100407.00;;;;4994244;27;88053;-64
2022/08/05 09:06:06;;;;;;;2.05;1.77;;;33.00;48.00;33.70;100408.00;;;;4997872;27;88394;-64
2022/08/05 09:08:31;;;;;;;2.13;1.73;;;33.10;47.70;33.90;100406.00;;;;4994851;27;88653;-64
2022/08/05 09:10:57;;;;;;;2.63;1.90;;;33.40;47.40;34.10;100393.00;;;;4993815;27;102432;-64
2022/08/05 09:13:24;;;;;;;2.95;2.05;;;33.60;47.00;34.30;100402.00;;;;4994301;27;95420;-64
2022/08/05 09:15:51;;;;;;;2.45;1.90;;;33.80;46.60;34.50;100409.00;;;;4995009;27;89088;-65
2022/08/05 09:18:18;;;;;;;2.63;2.28;;;34.00;46.20;34.50;100402.00;;;;4991185;27;116518;-64
2022/08/05 09:20:44;;;;;;;1.95;1.85;;;34.10;46.00;34.50;100402.00;;;;4995537;27;87808;-64
2022/08/05 09:23:16;;;;;;;1.95;1.83;;;34.10;45.70;34.40;100399.00;;;;4994409;27;87870;-64
2022/08/05 09:25:50;;;;;;;2.55;1.83;;;34.10;45.50;34.50;100402.00;;;;4998867;27;88854;-64
2022/08/05 09:28:23;;;;;;;3.05;2.40;;;34.10;45.50;34.70;100396.00;;;;4994913;27;88044;-64
2022/08/05 09:30:59;;;;;;;6.32;1.92;;;34.20;45.60;35.00;100407.00;;;;4994445;27;87661;-64
2022/08/05 09:33:25;;;;;;;2.13;1.92;;;34.40;45.50;35.20;100410.00;;;;4993667;27;87354;-63
2022/08/05 09:36:04;;;;;;;1.65;1.52;;;34.70;44.90;35.40;100415.00;;;;4994878;27;100077;-63
2022/08/05 09:38:30;;;;;;;2.97;1.98;;;34.90;44.50;35.60;100415.00;;;;4993370;27;88866;-64
2022/08/05 09:41:08;;;;;;;1.48;1.38;;;35.10;44.00;35.70;100411.00;;;;4994818;27;88755;-62
2022/08/05 09:43:37;;;;;;;4.15;2.05;;;35.10;43.50;35.80;100422.00;;;;5000210;27;87941;-64
2022/08/05 09:46:10;;;;;;;3.40;2.08;;;35.30;43.60;35.90;100424.00;;;;4999766;27;88026;-64
2022/08/05 09:48:37;;;;;;;2.25;2.05;;;35.40;43.30;36.00;100416.00;;;;4993984;27;87890;-63
2022/08/05 09:51:08;;;;;;;3.25;2.15;;;35.40;42.90;36.20;100420.00;;;;4992574;27;87699;-64
2022/08/05 09:53:51;;;;;;;2.78;2.25;;;35.70;42.70;36.40;100415.00;;;;4999711;27;87557;-64
2022/08/05 09:56:36;;;;;;;4.93;2.88;;;35.80;42.60;36.60;100400.00;;;;4994918;27;88060;-64
2022/08/05 09:59:08;;;;;;;2.83;1.70;;;36.00;42.40;36.80;100408.00;;;;5001779;27;87777;-64
2022/08/05 10:01:35;;;;;;;2.38;2.17;;;36.10;42.10;36.80;100403.00;;;;4994227;27;87740;-63
2022/08/05 10:04:13;;;;;;;2.85;1.58;;;36.30;41.60;36.80;100401.00;;;;5002690;27;88409;-64
2022/08/05 10:06:41;;;;;;;3.53;2.05;;;36.30;41.10;36.40;100402.00;;;;4993877;27;88867;-64
2022/08/05 10:09:16;;;;;;;2.90;1.77;;;36.10;41.00;36.10;100404.00;;;;4994196;27;90268;-64
2022/08/05 10:11:43;;;;;;;2.42;2.22;;;35.80;41.30;35.90;100401.00;;;;4994015;27;87642;-64
2022/08/05 10:14:28;;;;;;;3.05;2.20;;;35.60;41.80;36.10;100401.00;;;;4994612;27;87627;-63
2022/08/05 10:16:57;;;;;;;2.92;2.13;;;35.60;42.20;36.40;100396.00;;;;4994550;27;88914;-65
2022/08/05 10:19:26;;;;;;;1.85;1.65;;;35.80;42.10;36.70;100383.00;;;;4991693;27;88537;-64
2022/08/05 10:21:52;;;;;;;4.97;2.58;;;36.00;41.70;36.90;100385.00;;;;5001011;27;94201;-64
2022/08/05 10:24:19;;;;;;;1.50;1.38;;;36.20;41.40;37.10;100378.00;;;;4993571;27;99894;-64
2022/08/05 10:26:48;;;;;;;2.08;1.88;;;36.40;41.30;37.10;100378.00;;;;4992958;27;88682;-64
2022/08/05 10:29:14;;;;;;;1.60;1.50;;;36.50;40.70;37.00;100382.00;;;;4996155;27;88609;-65
2022/08/05 10:31:40;;;;;;;1.33;1.25;;;36.30;40.80;37.20;100378.00;;;;4993475;27;88916;-64
2022/08/05 10:34:08;;;;;;;1.67;1.52;;;36.40;41.00;37.50;100373.00;;;;4993180;27;87850;-63
2022/08/05 10:36:40;;;;;;;2.22;1.60;;;36.70;40.90;37.80;100378.00;;;;4992328;27;109597;-64
2022/08/05 10:39:24;;;;;;;2.50;1.55;;;36.90;40.40;38.10;100360.00;;;;4992392;27;87804;-63
2022/08/05 10:42:12;;;;;;;3.65;1.58;;;37.20;39.70;38.10;100353.00;;;;4991203;27;87975;-64
2022/08/05 10:44:43;;;;;;;2.53;1.25;;;37.40;39.10;38.10;100352.00;;;;4994043;27;87566;-63
2022/08/05 10:47:14;;;;;;;1.90;1.63;;;37.30;39.30;38.20;100355.00;;;;4990775;27;89322;-64
2022/08/05 10:50:10;;;;;;;1.58;1.20;;;37.40;38.90;38.40;100344.00;;;;4995756;27;88922;-64
2022/08/05 10:52:56;;;;;;;1.52;1.33;;;37.50;38.80;38.70;100339.00;;;;4993061;27;87451;-64
2022/08/05 10:55:23;;;;;;;1.75;1.20;;;37.70;38.80;39.20;100342.00;;;;4994470;27;87748;-65
2022/08/05 10:58:09;;;;;;;1.63;1.30;;;38.20;38.50;39.70;100349.00;;;;4991759;27;89809;-64